Aviation Digital Data Service (ADDS)

Output produced by TAFs form (2342 UTC 18 July 2018)
found at http://www.aviationweather.gov/adds/tafs/
 
RJSN 182300Z 21004KT 150V260 8000 FEW040 BKN/// 29/22 Q1011
TAF RJSN 182306Z 1900/2006 34008KT 9999 FEW030 
     BECMG 1908/1910 04004KT 
     BECMG 2000/2003 33012KT